Venividivici — ZCPL9 — position and weather

sailwx.info

Track history (hours):
 
Tides and Currents Weather Stations Pressure Air Temp Water Temp Dewpoint Dewpoint Depression Visibility Wind Speed Wind Dir Waves Ship Positions

Venividivici

Last reported at 2016-Aug-18 11:33 UTC. Time now 2016-Aug-24 02:37 UTC.
Position N 43°32' E 007°01'.

Length 40 m; draft 2 m.

MMSI: 319081000.

Date/timePositionNaut miles runAvg speedWind from/ knotsBaromVisibWave heightAir tempDewpointWater temp
2016-Aug-18 11:33N 43°32' E 007°01'1 0.2
2016-Aug-18 06:28N 43°33' E 007°02'0 0.0
2016-Aug-18 02:25N 43°33' E 007°02'0 0.0
2016-Aug-17 16:16N 43°33' E 007°02'0 0.0
2016-Aug-17 11:28N 43°32' E 007°02'1617.3
2016-Aug-17 10:32N 43°42' E 007°20'15 7.6
2016-Aug-17 08:32N 43°30' E 007°07'5 4.2
2016-Aug-17 07:26N 43°33' E 007°02'0 0.0
2016-Aug-17 01:30N 43°33' E 007°02'0 0.0
2016-Aug-17 00:25N 43°33' E 007°02'0 0.0
2016-Aug-16 23:25N 43°33' E 007°02'0 0.0
2016-Aug-16 22:32N 43°33' E 007°02'0 0.0
2016-Aug-16 19:04N 43°33' E 007°02'0 0.0
2016-Aug-16 18:29N 43°33' E 007°02'1 0.3
2016-Aug-16 14:34N 43°32' E 007°01'3 2.9
2016-Aug-16 13:28N 43°31' E 006°57'0 0.0
2016-Aug-16 12:13N 43°31' E 006°57'0 0.0
2016-Aug-16 10:12N 43°31' E 006°57'0 0.0
2016-Aug-16 09:21N 43°31' E 006°57'4 4.4
2016-Aug-16 08:25N 43°33' E 007°02'0 0.0
2016-Aug-16 07:26N 43°33' E 007°02'0 0.0
2016-Aug-16 06:21N 43°33' E 007°02'0 0.0
2016-Aug-15 17:29N 43°32' E 007°02'2 1.9
2016-Aug-15 16:33N 43°31' E 007°03'10 9.0
2016-Aug-15 15:26N 43°39' E 007°11'0 0.0
2016-Aug-15 14:32N 43°39' E 007°11'7 7.4
2016-Aug-15 13:33N 43°42' E 007°20'0 0.0
2016-Aug-15 11:22N 43°42' E 007°20'910.3
2016-Aug-15 10:28N 43°38' E 007°08'0 0.0
2016-Aug-15 08:29N 43°38' E 007°08'0 0.0
2016-Aug-15 07:30N 43°38' E 007°08'0 0.0
2016-Aug-15 06:24N 43°38' E 007°08'0 0.0
2016-Aug-15 04:32N 43°38' E 007°08'0 0.0
2016-Aug-15 03:26N 43°38' E 007°08'0 0.0
2016-Aug-15 02:33N 43°38' E 007°08'0 0.0
2016-Aug-15 01:28N 43°38' E 007°08'0 0.0
2016-Aug-15 00:23N 43°38' E 007°08'0 0.0
2016-Aug-14 23:29N 43°38' E 007°08'0 0.0
2016-Aug-14 22:30N 43°38' E 007°08'0 0.0
2016-Aug-14 21:30N 43°38' E 007°08'0 0.0
2016-Aug-14 20:31N 43°38' E 007°08'0 0.0
2016-Aug-14 19:26N 43°38' E 007°08'0 0.0
2016-Aug-14 18:32N 43°38' E 007°08'0 0.0
2016-Aug-14 17:33N 43°38' E 007°08'0 0.0
2016-Aug-14 16:28N 43°38' E 007°08'0 0.0
2016-Aug-14 15:31N 43°38' E 007°08'0 0.3
2016-Aug-14 14:33N 43°38' E 007°08'32 1.9
2016-Aug-13 21:22N 43°16' E 006°35'0 0.0
2016-Aug-13 19:18N 43°16' E 006°35'0 0.0
2016-Aug-13 18:24N 43°16' E 006°35'1 0.1
2016-Aug-13 12:19N 43°17' E 006°35'2 0.1
2016-Aug-12 22:30N 43°16' E 006°38'0 0.0
2016-Aug-12 17:30N 43°16' E 006°38'21 3.4
2016-Aug-12 11:18N 43°28' E 007°03'2011.2
2016-Aug-12 09:34N 43°43' E 007°20'1716.0
2016-Aug-12 08:31N 43°33' E 007°02'0 0.0
2016-Aug-12 07:17N 43°33' E 007°02'0 0.0
2016-Aug-12 06:27N 43°33' E 007°02'0 0.0
2016-Aug-11 22:26N 43°33' E 007°02'0 0.0
2016-Aug-11 21:33N 43°33' E 007°02'0 0.0
2016-Aug-11 20:33N 43°33' E 007°02'0 0.0
2016-Aug-11 18:32N 43°33' E 007°02'0 0.0
2016-Aug-11 17:29N 43°33' E 007°02'0 0.0
2016-Aug-11 15:13N 43°33' E 007°02'0 0.0
2016-Aug-11 14:31N 43°33' E 007°02'0 0.0
2016-Aug-11 13:32N 43°33' E 007°02'0 0.0
2016-Aug-11 12:33N 43°33' E 007°02'0 0.0
2016-Aug-11 11:30N 43°33' E 007°02'0 0.0
2016-Aug-11 10:28N 43°33' E 007°02'0 0.0
2016-Aug-11 09:26N 43°33' E 007°02'0 0.0
2016-Aug-11 08:32N 43°33' E 007°02'0 0.0
2016-Aug-11 07:33N 43°33' E 007°02'0 0.0
2016-Aug-11 06:34N 43°33' E 007°02'0 0.0
2016-Aug-11 00:32N 43°33' E 007°02'0 0.0
2016-Aug-10 23:32N 43°33' E 007°02'0 0.0
2016-Aug-10 22:30N 43°33' E 007°02'0 0.0
2016-Aug-10 21:28N 43°33' E 007°02'0 0.0
2016-Aug-10 20:28N 43°33' E 007°02'0 0.0
2016-Aug-10 19:26N 43°33' E 007°02'0 0.0
2016-Aug-10 18:33N 43°33' E 007°02'0 0.0
2016-Aug-10 17:33N 43°33' E 007°02'0 0.0
2016-Aug-10 16:19N 43°33' E 007°02'0 0.0
2016-Aug-10 14:06N 43°33' E 007°02'0 0.0
2016-Aug-10 13:27N 43°33' E 007°02'0 0.0
2016-Aug-10 11:08N 43°33' E 007°02'0 0.0
2016-Aug-10 10:32N 43°33' E 007°02'0 0.0
2016-Aug-10 08:30N 43°33' E 007°02'0 0.0
2016-Aug-10 07:04N 43°33' E 007°02'0 0.0
2016-Aug-10 05:26N 43°33' E 007°02'0 0.0
2016-Aug-10 04:33N 43°33' E 007°02'0 0.0
2016-Aug-10 03:31N 43°33' E 007°02'0 0.0
2016-Aug-10 02:31N 43°33' E 007°02'0 0.0
2016-Aug-10 01:29N 43°33' E 007°02'0 0.0
2016-Aug-10 00:30N 43°33' E 007°02'0 0.0
2016-Aug-09 23:27N 43°33' E 007°02'0 0.0
2016-Aug-09 22:25N 43°33' E 007°02'0 0.0
2016-Aug-09 21:32N 43°33' E 007°02'0 0.0
2016-Aug-09 20:32N 43°33' E 007°02'0 0.0
2016-Aug-09 19:30N 43°33' E 007°02'0 0.0
2016-Aug-09 18:31N 43°33' E 007°02'0 0.0
2016-Aug-09 07:23N 43°33' E 007°02'0 0.0
2016-Aug-08 14:05N 43°33' E 007°02'0 0.0
2016-Aug-08 13:14N 43°33' E 007°02'  
Track history (hours):
 
Tides and Currents Weather Stations Pressure Air Temp Water Temp Dewpoint Dewpoint Depression Visibility Wind Speed Wind Dir Waves Ship Positions

Venividivici

Last reported at 2016-Aug-18 11:33 UTC. Time now 2016-Aug-24 02:37 UTC.
Position N 43°32' E 007°01'.

Length 40 m; draft 2 m.

MMSI: 319081000.

Date/timePositionNaut miles runAvg speedWind from/ knotsBaromVisibWave heightAir tempDewpointWater temp
2016-Aug-18 11:33N 43°32' E 007°01'1 0.2
2016-Aug-18 06:28N 43°33' E 007°02'0 0.0
2016-Aug-18 02:25N 43°33' E 007°02'0 0.0
2016-Aug-17 16:16N 43°33' E 007°02'0 0.0
2016-Aug-17 11:28N 43°32' E 007°02'1617.3
2016-Aug-17 10:32N 43°42' E 007°20'15 7.6
2016-Aug-17 08:32N 43°30' E 007°07'5 4.2
2016-Aug-17 07:26N 43°33' E 007°02'0 0.0
2016-Aug-17 01:30N 43°33' E 007°02'0 0.0
2016-Aug-17 00:25N 43°33' E 007°02'0 0.0
2016-Aug-16 23:25N 43°33' E 007°02'0 0.0
2016-Aug-16 22:32N 43°33' E 007°02'0 0.0
2016-Aug-16 19:04N 43°33' E 007°02'0 0.0
2016-Aug-16 18:29N 43°33' E 007°02'1 0.3
2016-Aug-16 14:34N 43°32' E 007°01'3 2.9
2016-Aug-16 13:28N 43°31' E 006°57'0 0.0
2016-Aug-16 12:13N 43°31' E 006°57'0 0.0
2016-Aug-16 10:12N 43°31' E 006°57'0 0.0
2016-Aug-16 09:21N 43°31' E 006°57'4 4.4
2016-Aug-16 08:25N 43°33' E 007°02'0 0.0
2016-Aug-16 07:26N 43°33' E 007°02'0 0.0
2016-Aug-16 06:21N 43°33' E 007°02'0 0.0
2016-Aug-15 17:29N 43°32' E 007°02'2 1.9
2016-Aug-15 16:33N 43°31' E 007°03'10 9.0
2016-Aug-15 15:26N 43°39' E 007°11'0 0.0
2016-Aug-15 14:32N 43°39' E 007°11'7 7.4
2016-Aug-15 13:33N 43°42' E 007°20'0 0.0
2016-Aug-15 11:22N 43°42' E 007°20'910.3
2016-Aug-15 10:28N 43°38' E 007°08'0 0.0
2016-Aug-15 08:29N 43°38' E 007°08'0 0.0
2016-Aug-15 07:30N 43°38' E 007°08'0 0.0
2016-Aug-15 06:24N 43°38' E 007°08'0 0.0
2016-Aug-15 04:32N 43°38' E 007°08'0 0.0
2016-Aug-15 03:26N 43°38' E 007°08'0 0.0
2016-Aug-15 02:33N 43°38' E 007°08'0 0.0
2016-Aug-15 01:28N 43°38' E 007°08'0 0.0
2016-Aug-15 00:23N 43°38' E 007°08'0 0.0
2016-Aug-14 23:29N 43°38' E 007°08'0 0.0
2016-Aug-14 22:30N 43°38' E 007°08'0 0.0
2016-Aug-14 21:30N 43°38' E 007°08'0 0.0
2016-Aug-14 20:31N 43°38' E 007°08'0 0.0
2016-Aug-14 19:26N 43°38' E 007°08'0 0.0
2016-Aug-14 18:32N 43°38' E 007°08'0 0.0
2016-Aug-14 17:33N 43°38' E 007°08'0 0.0
2016-Aug-14 16:28N 43°38' E 007°08'0 0.0
2016-Aug-14 15:31N 43°38' E 007°08'0 0.3
2016-Aug-14 14:33N 43°38' E 007°08'32 1.9
2016-Aug-13 21:22N 43°16' E 006°35'0 0.0
2016-Aug-13 19:18N 43°16' E 006°35'0 0.0
2016-Aug-13 18:24N 43°16' E 006°35'1 0.1
2016-Aug-13 12:19N 43°17' E 006°35'2 0.1
2016-Aug-12 22:30N 43°16' E 006°38'0 0.0
2016-Aug-12 17:30N 43°16' E 006°38'21 3.4
2016-Aug-12 11:18N 43°28' E 007°03'2011.2
2016-Aug-12 09:34N 43°43' E 007°20'1716.0
2016-Aug-12 08:31N 43°33' E 007°02'0 0.0
2016-Aug-12 07:17N 43°33' E 007°02'0 0.0
2016-Aug-12 06:27N 43°33' E 007°02'0 0.0
2016-Aug-11 22:26N 43°33' E 007°02'0 0.0
2016-Aug-11 21:33N 43°33' E 007°02'0 0.0
2016-Aug-11 20:33N 43°33' E 007°02'0 0.0
2016-Aug-11 18:32N 43°33' E 007°02'0 0.0
2016-Aug-11 17:29N 43°33' E 007°02'0 0.0
2016-Aug-11 15:13N 43°33' E 007°02'0 0.0
2016-Aug-11 14:31N 43°33' E 007°02'0 0.0
2016-Aug-11 13:32N 43°33' E 007°02'0 0.0
2016-Aug-11 12:33N 43°33' E 007°02'0 0.0
2016-Aug-11 11:30N 43°33' E 007°02'0 0.0
2016-Aug-11 10:28N 43°33' E 007°02'0 0.0
2016-Aug-11 09:26N 43°33' E 007°02'0 0.0
2016-Aug-11 08:32N 43°33' E 007°02'0 0.0
2016-Aug-11 07:33N 43°33' E 007°02'0 0.0
2016-Aug-11 06:34N 43°33' E 007°02'0 0.0
2016-Aug-11 00:32N 43°33' E 007°02'0 0.0
2016-Aug-10 23:32N 43°33' E 007°02'0 0.0
2016-Aug-10 22:30N 43°33' E 007°02'0 0.0
2016-Aug-10 21:28N 43°33' E 007°02'0 0.0
2016-Aug-10 20:28N 43°33' E 007°02'0 0.0
2016-Aug-10 19:26N 43°33' E 007°02'0 0.0
2016-Aug-10 18:33N 43°33' E 007°02'0 0.0
2016-Aug-10 17:33N 43°33' E 007°02'0 0.0
2016-Aug-10 16:19N 43°33' E 007°02'0 0.0
2016-Aug-10 14:06N 43°33' E 007°02'0 0.0
2016-Aug-10 13:27N 43°33' E 007°02'0 0.0
2016-Aug-10 11:08N 43°33' E 007°02'0 0.0
2016-Aug-10 10:32N 43°33' E 007°02'0 0.0
2016-Aug-10 08:30N 43°33' E 007°02'0 0.0
2016-Aug-10 07:04N 43°33' E 007°02'0 0.0
2016-Aug-10 05:26N 43°33' E 007°02'0 0.0
2016-Aug-10 04:33N 43°33' E 007°02'0 0.0
2016-Aug-10 03:31N 43°33' E 007°02'0 0.0
2016-Aug-10 02:31N 43°33' E 007°02'0 0.0
2016-Aug-10 01:29N 43°33' E 007°02'0 0.0
2016-Aug-10 00:30N 43°33' E 007°02'0 0.0
2016-Aug-09 23:27N 43°33' E 007°02'0 0.0
2016-Aug-09 22:25N 43°33' E 007°02'0 0.0
2016-Aug-09 21:32N 43°33' E 007°02'0 0.0
2016-Aug-09 20:32N 43°33' E 007°02'0 0.0
2016-Aug-09 19:30N 43°33' E 007°02'0 0.0
2016-Aug-09 18:31N 43°33' E 007°02'0 0.0
2016-Aug-09 07:23N 43°33' E 007°02'0 0.0
2016-Aug-08 14:05N 43°33' E 007°02'0 0.0
2016-Aug-08 13:14N 43°33' E 007°02'  

Dump ship's entire track history